sensor_id;sensor_type;location;lat;lon;timestamp;pressure;altitude;pressure_sealevel;temperature;humidity
58473;BME280;44775;51.564;5.460;2023-08-20T00:01:23;101786.47;;;16.74;100.00
58473;BME280;44775;51.564;5.460;2023-08-20T00:03:50;101782.63;;;16.69;100.00
58473;BME280;44775;51.564;5.460;2023-08-20T00:06:16;101793.78;;;16.66;100.00
58473;BME280;44775;51.564;5.460;2023-08-20T00:08:41;101789.59;;;16.63;100.00
58473;BME280;44775;51.564;5.460;2023-08-20T00:11:08;101792.66;;;16.60;100.00
58473;BME280;44775;51.564;5.460;2023-08-20T00:13:33;101783.47;;;16.55;100.00
58473;BME280;44775;51.564;5.460;2023-08-20T00:15:59;101781.88;;;16.45;100.00
58473;BME280;44775;51.564;5.460;2023-08-20T00:18:25;101779.25;;;16.52;100.00
58473;BME280;44775;51.564;5.460;2023-08-20T00:20:51;101775.63;;;16.45;100.00
58473;BME280;44775;51.564;5.460;2023-08-20T00:23:17;101779.00;;;16.47;100.00
58473;BME280;44775;51.564;5.460;2023-08-20T00:25:43;101775.91;;;16.35;100.00
58473;BME280;44775;51.564;5.460;2023-08-20T00:28:09;101782.03;;;16.29;100.00
58473;BME280;44775;51.564;5.460;2023-08-20T00:30:34;101778.50;;;16.28;100.00
58473;BME280;44775;51.564;5.460;2023-08-20T00:32:59;101774.13;;;16.27;100.00
58473;BME280;44775;51.564;5.460;2023-08-20T00:35:25;101779.41;;;16.21;100.00
58473;BME280;44775;51.564;5.460;2023-08-20T00:37:50;101790.72;;;16.16;100.00
58473;BME280;44775;51.564;5.460;2023-08-20T00:40:15;101785.91;;;16.12;100.00
58473;BME280;44775;51.564;5.460;2023-08-20T00:42:41;101792.69;;;16.08;100.00
58473;BME280;44775;51.564;5.460;2023-08-20T00:45:06;101802.31;;;16.02;100.00
58473;BME280;44775;51.564;5.460;2023-08-20T00:47:32;101809.78;;;16.00;100.00
58473;BME280;44775;51.564;5.460;2023-08-20T00:49:58;101811.13;;;15.96;100.00
58473;BME280;44775;51.564;5.460;2023-08-20T00:52:23;101808.78;;;15.93;100.00
58473;BME280;44775;51.564;5.460;2023-08-20T00:54:50;101813.81;;;15.96;100.00
58473;BME280;44775;51.564;5.460;2023-08-20T00:57:17;101807.59;;;15.95;100.00
58473;BME280;44775;51.564;5.460;2023-08-20T00:59:43;101820.56;;;16.00;100.00
58473;BME280;44775;51.564;5.460;2023-08-20T01:02:09;101822.22;;;16.01;100.00
58473;BME280;44775;51.564;5.460;2023-08-20T01:04:35;101839.72;;;16.05;100.00
58473;BME280;44775;51.564;5.460;2023-08-20T01:07:03;101847.63;;;16.07;100.00
58473;BME280;44775;51.564;5.460;2023-08-20T01:12:03;101852.13;;;16.14;100.00
58473;BME280;44775;51.564;5.460;2023-08-20T01:14:29;101849.06;;;16.17;100.00
58473;BME280;44775;51.564;5.460;2023-08-20T01:16:54;101851.19;;;16.22;100.00
58473;BME280;44775;51.564;5.460;2023-08-20T01:19:21;101858.75;;;16.26;100.00
58473;BME280;44775;51.564;5.460;2023-08-20T01:30:10;101851.84;;;16.47;100.00
58473;BME280;44775;51.564;5.460;2023-08-20T01:32:38;101839.28;;;16.54;100.00
58473;BME280;44775;51.564;5.460;2023-08-20T01:35:11;101836.88;;;16.59;100.00
58473;BME280;44775;51.564;5.460;2023-08-20T01:37:36;101834.16;;;16.59;100.00
58473;BME280;44775;51.564;5.460;2023-08-20T01:40:01;101840.59;;;16.58;100.00
58473;BME280;44775;51.564;5.460;2023-08-20T01:42:28;101848.84;;;16.57;100.00
58473;BME280;44775;51.564;5.460;2023-08-20T01:44:54;101845.16;;;16.58;100.00
58473;BME280;44775;51.564;5.460;2023-08-20T01:47:19;101845.63;;;16.61;100.00
58473;BME280;44775;51.564;5.460;2023-08-20T01:49:44;101846.47;;;16.62;100.00
58473;BME280;44775;51.564;5.460;2023-08-20T01:52:10;101843.75;;;16.62;100.00
58473;BME280;44775;51.564;5.460;2023-08-20T01:54:36;101845.25;;;16.64;100.00
58473;BME280;44775;51.564;5.460;2023-08-20T01:57:01;101851.97;;;16.68;100.00
58473;BME280;44775;51.564;5.460;2023-08-20T01:59:26;101859.50;;;16.73;100.00
58473;BME280;44775;51.564;5.460;2023-08-20T02:01:52;101860.81;;;16.77;100.00
58473;BME280;44775;51.564;5.460;2023-08-20T02:04:18;101877.13;;;16.84;100.00
58473;BME280;44775;51.564;5.460;2023-08-20T02:06:43;101867.66;;;16.88;100.00
58473;BME280;44775;51.564;5.460;2023-08-20T02:09:08;101876.38;;;16.90;100.00
58473;BME280;44775;51.564;5.460;2023-08-20T02:11:34;101884.13;;;16.93;100.00
58473;BME280;44775;51.564;5.460;2023-08-20T02:14:01;101889.53;;;16.93;100.00
58473;BME280;44775;51.564;5.460;2023-08-20T02:16:27;101887.47;;;16.95;100.00
58473;BME280;44775;51.564;5.460;2023-08-20T02:18:52;101883.56;;;16.97;100.00
58473;BME280;44775;51.564;5.460;2023-08-20T02:21:18;101885.25;;;16.98;100.00
58473;BME280;44775;51.564;5.460;2023-08-20T02:23:43;101882.72;;;16.97;100.00
58473;BME280;44775;51.564;5.460;2023-08-20T02:26:09;101871.09;;;16.96;100.00
58473;BME280;44775;51.564;5.460;2023-08-20T02:28:35;101871.00;;;16.90;100.00
58473;BME280;44775;51.564;5.460;2023-08-20T02:31:04;101880.59;;;16.92;100.00
58473;BME280;44775;51.564;5.460;2023-08-20T02:33:29;101878.47;;;16.88;100.00
58473;BME280;44775;51.564;5.460;2023-08-20T02:35:55;101883.84;;;16.88;100.00
58473;BME280;44775;51.564;5.460;2023-08-20T02:38:20;101886.34;;;16.89;100.00
58473;BME280;44775;51.564;5.460;2023-08-20T02:40:45;101877.59;;;16.87;100.00
58473;BME280;44775;51.564;5.460;2023-08-20T02:43:11;101866.63;;;16.89;100.00
58473;BME280;44775;51.564;5.460;2023-08-20T02:45:42;101866.63;;;16.89;100.00
58473;BME280;44775;51.564;5.460;2023-08-20T02:48:08;101862.78;;;16.83;100.00
58473;BME280;44775;51.564;5.460;2023-08-20T02:50:34;101859.63;;;16.80;100.00
58473;BME280;44775;51.564;5.460;2023-08-20T02:52:59;101860.47;;;16.80;100.00
58473;BME280;44775;51.564;5.460;2023-08-20T02:55:25;101858.31;;;16.75;100.00
58473;BME280;44775;51.564;5.460;2023-08-20T02:57:50;101866.41;;;16.75;100.00
58473;BME280;44775;51.564;5.460;2023-08-20T03:00:15;101860.88;;;16.69;100.00
58473;BME280;44775;51.564;5.460;2023-08-20T03:02:41;101867.47;;;16.66;100.00
58473;BME280;44775;51.564;5.460;2023-08-20T03:05:08;101867.94;;;16.55;100.00
58473;BME280;44775;51.564;5.460;2023-08-20T03:07:34;101865.22;;;16.40;100.00
58473;BME280;44775;51.564;5.460;2023-08-20T03:09:59;101852.81;;;16.31;100.00
58473;BME280;44775;51.564;5.460;2023-08-20T03:12:25;101857.44;;;16.22;100.00
58473;BME280;44775;51.564;5.460;2023-08-20T03:14:50;101859.19;;;16.15;100.00
58473;BME280;44775;51.564;5.460;2023-08-20T03:17:15;101851.69;;;16.02;100.00
58473;BME280;44775;51.564;5.460;2023-08-20T03:19:56;101860.69;;;15.95;100.00
58473;BME280;44775;51.564;5.460;2023-08-20T03:22:23;101863.09;;;15.90;100.00
58473;BME280;44775;51.564;5.460;2023-08-20T03:24:49;101861.63;;;15.79;100.00
58473;BME280;44775;51.564;5.460;2023-08-20T03:27:15;101861.31;;;15.74;100.00
58473;BME280;44775;51.564;5.460;2023-08-20T03:29:40;101849.41;;;15.68;100.00
58473;BME280;44775;51.564;5.460;2023-08-20T03:32:05;101853.44;;;15.64;100.00
58473;BME280;44775;51.564;5.460;2023-08-20T03:34:31;101847.44;;;15.54;100.00
58473;BME280;44775;51.564;5.460;2023-08-20T03:36:56;101846.75;;;15.52;100.00
58473;BME280;44775;51.564;5.460;2023-08-20T03:39:21;101852.88;;;15.46;100.00
58473;BME280;44775;51.564;5.460;2023-08-20T03:41:47;101842.25;;;15.44;100.00
58473;BME280;44775;51.564;5.460;2023-08-20T03:44:12;101839.44;;;15.38;100.00
58473;BME280;44775;51.564;5.460;2023-08-20T03:46:37;101849.38;;;15.37;100.00
58473;BME280;44775;51.564;5.460;2023-08-20T03:49:03;101838.13;;;15.25;100.00
58473;BME280;44775;51.564;5.460;2023-08-20T03:51:28;101855.00;;;15.19;100.00
58473;BME280;44775;51.564;5.460;2023-08-20T03:53:53;101855.66;;;15.21;100.00
58473;BME280;44775;51.564;5.460;2023-08-20T03:56:19;101851.28;;;15.20;100.00
58473;BME280;44775;51.564;5.460;2023-08-20T03:58:44;101857.22;;;15.16;100.00
58473;BME280;44775;51.564;5.460;2023-08-20T04:01:10;101865.28;;;15.16;100.00
58473;BME280;44775;51.564;5.460;2023-08-20T04:03:35;101866.47;;;15.13;100.00
58473;BME280;44775;51.564;5.460;2023-08-20T04:06:00;101865.16;;;15.09;100.00
58473;BME280;44775;51.564;5.460;2023-08-20T04:08:26;101867.50;;;15.04;100.00
58473;BME280;44775;51.564;5.460;2023-08-20T04:10:51;101881.16;;;15.02;100.00
58473;BME280;44775;51.564;5.460;2023-08-20T04:13:17;101878.97;;;14.98;100.00
58473;BME280;44775;51.564;5.460;2023-08-20T04:15:42;101870.91;;;14.90;100.00
58473;BME280;44775;51.564;5.460;2023-08-20T04:18:08;101874.44;;;14.90;100.00
58473;BME280;44775;51.564;5.460;2023-08-20T04:20:34;101886.88;;;14.91;100.00
58473;BME280;44775;51.564;5.460;2023-08-20T04:22:59;101881.34;;;14.93;100.00
58473;BME280;44775;51.564;5.460;2023-08-20T04:25:24;101877.81;;;14.84;100.00
58473;BME280;44775;51.564;5.460;2023-08-20T04:27:49;101883.03;;;14.77;100.00
58473;BME280;44775;51.564;5.460;2023-08-20T04:30:15;101881.72;;;14.73;100.00
58473;BME280;44775;51.564;5.460;2023-08-20T04:32:40;101881.88;;;14.63;100.00
58473;BME280;44775;51.564;5.460;2023-08-20T04:35:06;101883.75;;;14.63;100.00
58473;BME280;44775;51.564;5.460;2023-08-20T04:37:31;101892.50;;;14.65;100.00
58473;BME280;44775;51.564;5.460;2023-08-20T04:39:57;101888.59;;;14.68;100.00
58473;BME280;44775;51.564;5.460;2023-08-20T04:42:22;101888.25;;;14.71;100.00
58473;BME280;44775;51.564;5.460;2023-08-20T04:44:47;101890.63;;;14.66;100.00
58473;BME280;44775;51.564;5.460;2023-08-20T04:47:13;101885.75;;;14.69;100.00
58473;BME280;44775;51.564;5.460;2023-08-20T04:49:38;101881.41;;;14.68;100.00
58473;BME280;44775;51.564;5.460;2023-08-20T04:52:04;101879.84;;;14.74;100.00
58473;BME280;44775;51.564;5.460;2023-08-20T04:54:29;101881.91;;;14.72;100.00
58473;BME280;44775;51.564;5.460;2023-08-20T04:56:55;101893.63;;;14.71;100.00
58473;BME280;44775;51.564;5.460;2023-08-20T04:59:20;101885.75;;;14.69;100.00
58473;BME280;44775;51.564;5.460;2023-08-20T05:01:45;101887.28;;;14.72;100.00
58473;BME280;44775;51.564;5.460;2023-08-20T05:04:11;101886.09;;;14.66;100.00
58473;BME280;44775;51.564;5.460;2023-08-20T05:06:37;101883.56;;;14.64;100.00
58473;BME280;44775;51.564;5.460;2023-08-20T05:09:03;101883.06;;;14.69;100.00
58473;BME280;44775;51.564;5.460;2023-08-20T05:11:28;101893.63;;;14.71;100.00
58473;BME280;44775;51.564;5.460;2023-08-20T05:13:56;101892.47;;;14.73;100.00
58473;BME280;44775;51.564;5.460;2023-08-20T05:16:22;101902.72;;;14.78;100.00
58473;BME280;44775;51.564;5.460;2023-08-20T05:18:47;101903.72;;;14.77;100.00
58473;BME280;44775;51.564;5.460;2023-08-20T05:21:13;101900.50;;;14.81;100.00
58473;BME280;44775;51.564;5.460;2023-08-20T05:23:39;101900.84;;;14.86;100.00
58473;BME280;44775;51.564;5.460;2023-08-20T05:26:06;101902.88;;;14.93;100.00
58473;BME280;44775;51.564;5.460;2023-08-20T05:28:32;101913.28;;;14.96;100.00
58473;BME280;44775;51.564;5.460;2023-08-20T05:30:58;101909.59;;;14.97;100.00
58473;BME280;44775;51.564;5.460;2023-08-20T05:33:24;101918.84;;;15.02;100.00
58473;BME280;44775;51.564;5.460;2023-08-20T05:35:49;101915.75;;;15.14;100.00
58473;BME280;44775;51.564;5.460;2023-08-20T05:38:15;101918.41;;;15.22;100.00
58473;BME280;44775;51.564;5.460;2023-08-20T05:40:40;101915.56;;;15.23;100.00
58473;BME280;44775;51.564;5.460;2023-08-20T05:43:06;101919.94;;;15.24;100.00
58473;BME280;44775;51.564;5.460;2023-08-20T05:45:31;101920.91;;;15.31;100.00
58473;BME280;44775;51.564;5.460;2023-08-20T05:47:57;101916.69;;;15.37;100.00
58473;BME280;44775;51.564;5.460;2023-08-20T05:50:22;101920.38;;;15.44;100.00
58473;BME280;44775;51.564;5.460;2023-08-20T05:52:48;101930.28;;;15.52;100.00
58473;BME280;44775;51.564;5.460;2023-08-20T05:55:13;101912.75;;;15.56;100.00
58473;BME280;44775;51.564;5.460;2023-08-20T05:57:39;101916.09;;;15.58;100.00
58473;BME280;44775;51.564;5.460;2023-08-20T06:00:05;101916.94;;;15.67;100.00
58473;BME280;44775;51.564;5.460;2023-08-20T06:02:30;101919.78;;;15.73;100.00
58473;BME280;44775;51.564;5.460;2023-08-20T06:04:55;101926.78;;;15.82;100.00
58473;BME280;44775;51.564;5.460;2023-08-20T06:07:21;101932.44;;;15.96;100.00
58473;BME280;44775;51.564;5.460;2023-08-20T06:09:46;101926.00;;;16.05;100.00
58473;BME280;44775;51.564;5.460;2023-08-20T06:12:12;101928.94;;;16.18;100.00
58473;BME280;44775;51.564;5.460;2023-08-20T06:14:37;101927.50;;;16.31;100.00
58473;BME280;44775;51.564;5.460;2023-08-20T06:17:03;101923.22;;;16.36;100.00
58473;BME280;44775;51.564;5.460;2023-08-20T06:19:28;101928.84;;;16.49;100.00
58473;BME280;44775;51.564;5.460;2023-08-20T06:21:54;101925.38;;;16.64;100.00
58473;BME280;44775;51.564;5.460;2023-08-20T06:24:19;101935.25;;;16.71;100.00
58473;BME280;44775;51.564;5.460;2023-08-20T06:26:45;101931.44;;;17.04;100.00
58473;BME280;44775;51.564;5.460;2023-08-20T06:29:10;101931.41;;;17.48;100.00
58473;BME280;44775;51.564;5.460;2023-08-20T06:31:36;101935.31;;;18.11;100.00
58473;BME280;44775;51.564;5.460;2023-08-20T06:34:01;101937.84;;;18.56;100.00
58473;BME280;44775;51.564;5.460;2023-08-20T06:36:26;101952.47;;;19.11;100.00
58473;BME280;44775;51.564;5.460;2023-08-20T06:38:51;101954.19;;;19.60;100.00
58473;BME280;44775;51.564;5.460;2023-08-20T06:41:17;101949.34;;;19.90;100.00
58473;BME280;44775;51.564;5.460;2023-08-20T06:43:43;101952.19;;;20.37;100.00
58473;BME280;44775;51.564;5.460;2023-08-20T06:46:08;101962.69;;;20.60;100.00
58473;BME280;44775;51.564;5.460;2023-08-20T06:48:34;101965.16;;;21.21;100.00
58473;BME280;44775;51.564;5.460;2023-08-20T06:51:08;101966.28;;;21.72;100.00
58473;BME280;44775;51.564;5.460;2023-08-20T06:53:33;101965.69;;;22.08;100.00
58473;BME280;44775;51.564;5.460;2023-08-20T06:55:58;101965.28;;;22.11;100.00
58473;BME280;44775;51.564;5.460;2023-08-20T06:58:24;101953.44;;;22.62;97.45
58473;BME280;44775;51.564;5.460;2023-08-20T07:00:49;101966.31;;;22.73;95.38
58473;BME280;44775;51.564;5.460;2023-08-20T07:03:14;101958.09;;;22.80;91.88
58473;BME280;44775;51.564;5.460;2023-08-20T07:05:40;101974.63;;;23.10;89.24
58473;BME280;44775;51.564;5.460;2023-08-20T07:08:05;101972.81;;;23.22;86.62
58473;BME280;44775;51.564;5.460;2023-08-20T07:10:30;101975.09;;;23.44;84.90
58473;BME280;44775;51.564;5.460;2023-08-20T07:12:56;101975.47;;;23.66;84.48
58473;BME280;44775;51.564;5.460;2023-08-20T07:15:21;101979.50;;;24.00;84.05
58473;BME280;44775;51.564;5.460;2023-08-20T07:17:47;101985.50;;;24.20;81.31
58473;BME280;44775;51.564;5.460;2023-08-20T07:20:12;101982.63;;;24.45;80.01
58473;BME280;44775;51.564;5.460;2023-08-20T07:22:37;101987.78;;;24.65;79.28
58473;BME280;44775;51.564;5.460;2023-08-20T07:25:03;101989.84;;;24.82;76.82
58473;BME280;44775;51.564;5.460;2023-08-20T07:27:28;101979.94;;;24.57;77.55
58473;BME280;44775;51.564;5.460;2023-08-20T07:29:54;101989.00;;;24.93;75.97
58473;BME280;44775;51.564;5.460;2023-08-20T07:32:19;101992.81;;;25.04;74.87
58473;BME280;44775;51.564;5.460;2023-08-20T07:34:44;101994.63;;;25.33;71.72
58473;BME280;44775;51.564;5.460;2023-08-20T07:37:10;101991.59;;;25.82;70.57
58473;BME280;44775;51.564;5.460;2023-08-20T07:39:35;101996.38;;;25.63;66.57
58473;BME280;44775;51.564;5.460;2023-08-20T07:42:00;101995.75;;;25.84;67.31
58473;BME280;44775;51.564;5.460;2023-08-20T07:44:26;102000.06;;;25.68;66.98
58473;BME280;44775;51.564;5.460;2023-08-20T07:46:53;101998.25;;;25.86;66.38
58473;BME280;44775;51.564;5.460;2023-08-20T07:49:18;102000.16;;;26.14;66.28
58473;BME280;44775;51.564;5.460;2023-08-20T07:51:43;102004.78;;;26.42;65.58
58473;BME280;44775;51.564;5.460;2023-08-20T07:54:09;102017.06;;;26.85;61.44
58473;BME280;44775;51.564;5.460;2023-08-20T07:56:34;102012.59;;;27.13;60.84
58473;BME280;44775;51.564;5.460;2023-08-20T07:58:59;102014.16;;;27.08;59.08
58473;BME280;44775;51.564;5.460;2023-08-20T08:01:24;102016.75;;;27.15;57.68
58473;BME280;44775;51.564;5.460;2023-08-20T08:03:50;102019.03;;;27.06;58.47
58473;BME280;44775;51.564;5.460;2023-08-20T08:06:16;102013.75;;;27.17;58.23
58473;BME280;44775;51.564;5.460;2023-08-20T08:08:42;102022.31;;;27.37;57.92
58473;BME280;44775;51.564;5.460;2023-08-20T08:11:09;102009.81;;;28.12;59.93
58473;BME280;44775;51.564;5.460;2023-08-20T08:13:34;102020.34;;;27.54;54.46
58473;BME280;44775;51.564;5.460;2023-08-20T08:16:00;102025.00;;;27.54;55.17
58473;BME280;44775;51.564;5.460;2023-08-20T08:18:25;102024.47;;;27.57;55.55
58473;BME280;44775;51.564;5.460;2023-08-20T08:20:50;102029.50;;;27.82;55.17
58473;BME280;44775;51.564;5.460;2023-08-20T08:23:16;102031.47;;;28.09;53.91
58473;BME280;44775;51.564;5.460;2023-08-20T08:25:41;102035.59;;;28.33;52.89
58473;BME280;44775;51.564;5.460;2023-08-20T08:28:06;102030.03;;;28.55;52.71
58473;BME280;44775;51.564;5.460;2023-08-20T08:30:32;102041.38;;;28.59;51.72
58473;BME280;44775;51.564;5.460;2023-08-20T08:32:57;102037.88;;;28.68;50.40
58473;BME280;44775;51.564;5.460;2023-08-20T08:35:23;102026.22;;;28.88;50.50
58473;BME280;44775;51.564;5.460;2023-08-20T08:37:48;102040.91;;;28.72;49.92
58473;BME280;44775;51.564;5.460;2023-08-20T08:40:13;102043.22;;;28.80;48.91
58473;BME280;44775;51.564;5.460;2023-08-20T08:42:40;102043.63;;;29.31;48.32
58473;BME280;44775;51.564;5.460;2023-08-20T08:45:07;102047.22;;;29.84;46.40
58473;BME280;44775;51.564;5.460;2023-08-20T08:47:32;102042.97;;;30.19;45.53
58473;BME280;44775;51.564;5.460;2023-08-20T08:49:58;102042.91;;;30.09;44.90
58473;BME280;44775;51.564;5.460;2023-08-20T08:52:25;102047.09;;;30.27;44.63
58473;BME280;44775;51.564;5.460;2023-08-20T08:54:51;102040.81;;;30.42;45.33
58473;BME280;44775;51.564;5.460;2023-08-20T08:57:16;102041.94;;;30.56;44.29
58473;BME280;44775;51.564;5.460;2023-08-20T08:59:42;102041.69;;;30.78;43.79
58473;BME280;44775;51.564;5.460;2023-08-20T09:02:12;102053.25;;;30.65;44.56
58473;BME280;44775;51.564;5.460;2023-08-20T09:04:41;102050.44;;;30.44;44.32
58473;BME280;44775;51.564;5.460;2023-08-20T09:07:15;102051.56;;;30.43;44.37
58473;BME280;44775;51.564;5.460;2023-08-20T09:09:45;102046.66;;;29.82;44.34
58473;BME280;44775;51.564;5.460;2023-08-20T09:12:18;102054.88;;;30.61;43.42
58473;BME280;44775;51.564;5.460;2023-08-20T09:14:50;102051.31;;;30.75;43.46
58473;BME280;44775;51.564;5.460;2023-08-20T09:17:16;102051.91;;;30.83;41.77
58473;BME280;44775;51.564;5.460;2023-08-20T09:19:45;102041.09;;;31.12;41.19
58473;BME280;44775;51.564;5.460;2023-08-20T09:22:12;102051.91;;;30.93;42.57
58473;BME280;44775;51.564;5.460;2023-08-20T09:24:52;102052.31;;;31.77;43.07
58473;BME280;44775;51.564;5.460;2023-08-20T09:27:18;102053.69;;;31.74;40.11
58473;BME280;44775;51.564;5.460;2023-08-20T09:29:47;102050.41;;;31.62;40.98
58473;BME280;44775;51.564;5.460;2023-08-20T09:32:17;102045.75;;;31.42;41.60
58473;BME280;44775;51.564;5.460;2023-08-20T09:34:43;102056.25;;;31.45;40.95
58473;BME280;44775;51.564;5.460;2023-08-20T09:37:12;102052.94;;;31.48;41.13
58473;BME280;44775;51.564;5.460;2023-08-20T09:39:38;102058.13;;;31.70;40.63
58473;BME280;44775;51.564;5.460;2023-08-20T09:42:05;102064.31;;;32.16;37.72
58473;BME280;44775;51.564;5.460;2023-08-20T09:44:34;102057.94;;;32.16;36.23
58473;BME280;44775;51.564;5.460;2023-08-20T09:47:10;102055.22;;;32.11;38.95
58473;BME280;44775;51.564;5.460;2023-08-20T09:49:40;102054.66;;;32.58;36.64
58473;BME280;44775;51.564;5.460;2023-08-20T09:52:10;102052.72;;;32.09;39.10
58473;BME280;44775;51.564;5.460;2023-08-20T09:55:03;102061.81;;;32.20;36.17
58473;BME280;44775;51.564;5.460;2023-08-20T09:57:35;102055.91;;;32.32;33.33
58473;BME280;44775;51.564;5.460;2023-08-20T10:00:02;102060.25;;;31.98;37.90
58473;BME280;44775;51.564;5.460;2023-08-20T10:02:29;102062.97;;;32.58;33.83
58473;BME280;44775;51.564;5.460;2023-08-20T10:04:54;102059.94;;;32.55;32.57
58473;BME280;44775;51.564;5.460;2023-08-20T10:07:20;102056.22;;;32.30;33.46
58473;BME280;44775;51.564;5.460;2023-08-20T10:09:48;102050.81;;;32.10;37.93
58473;BME280;44775;51.564;5.460;2023-08-20T10:12:15;102049.13;;;32.09;37.05
58473;BME280;44775;51.564;5.460;2023-08-20T10:14:41;102046.16;;;32.39;34.37
58473;BME280;44775;51.564;5.460;2023-08-20T10:17:11;102057.16;;;32.94;34.60
58473;BME280;44775;51.564;5.460;2023-08-20T10:19:37;102052.91;;;32.28;33.52
58473;BME280;44775;51.564;5.460;2023-08-20T10:22:04;102051.53;;;32.26;36.69
58473;BME280;44775;51.564;5.460;2023-08-20T10:25:00;102048.28;;;32.92;36.73
58473;BME280;44775;51.564;5.460;2023-08-20T10:27:31;102053.56;;;33.47;32.03
58473;BME280;44775;51.564;5.460;2023-08-20T10:29:58;102043.41;;;33.66;34.87
58473;BME280;44775;51.564;5.460;2023-08-20T10:32:49;102048.84;;;34.19;35.13
58473;BME280;44775;51.564;5.460;2023-08-20T10:35:17;102063.00;;;34.55;30.22
58473;BME280;44775;51.564;5.460;2023-08-20T10:38:05;102060.28;;;34.69;35.47
58473;BME280;44775;51.564;5.460;2023-08-20T10:40:53;102053.91;;;34.31;35.50
58473;BME280;44775;51.564;5.460;2023-08-20T10:43:38;102049.81;;;34.10;32.74
58473;BME280;44775;51.564;5.460;2023-08-20T10:48:31;102043.88;;;32.91;36.17
58473;BME280;44775;51.564;5.460;2023-08-20T10:51:05;102050.69;;;33.04;32.33
58473;BME280;44775;51.564;5.460;2023-08-20T10:53:31;102054.41;;;32.55;31.93
58473;BME280;44775;51.564;5.460;2023-08-20T10:56:07;102045.94;;;32.75;35.90
58473;BME280;44775;51.564;5.460;2023-08-20T10:58:33;102047.13;;;33.27;32.49
58473;BME280;44775;51.564;5.460;2023-08-20T11:01:20;102064.72;;;34.33;30.24
58473;BME280;44775;51.564;5.460;2023-08-20T11:03:47;102049.56;;;34.95;29.23
58473;BME280;44775;51.564;5.460;2023-08-20T11:06:14;102050.78;;;34.89;28.49
58473;BME280;44775;51.564;5.460;2023-08-20T11:08:39;102057.75;;;34.54;29.05
58473;BME280;44775;51.564;5.460;2023-08-20T11:11:05;102049.47;;;34.49;33.32
58473;BME280;44775;51.564;5.460;2023-08-20T11:13:32;102045.13;;;34.62;33.54
58473;BME280;44775;51.564;5.460;2023-08-20T11:15:58;102046.03;;;35.36;28.10
58473;BME280;44775;51.564;5.460;2023-08-20T11:18:24;102044.28;;;35.27;28.79
58473;BME280;44775;51.564;5.460;2023-08-20T11:20:50;102047.31;;;34.97;30.61
58473;BME280;44775;51.564;5.460;2023-08-20T11:23:16;102035.44;;;34.78;33.56
58473;BME280;44775;51.564;5.460;2023-08-20T11:25:42;102035.50;;;34.73;29.85
58473;BME280;44775;51.564;5.460;2023-08-20T11:28:08;102039.16;;;34.54;33.72
58473;BME280;44775;51.564;5.460;2023-08-20T11:30:33;102033.16;;;35.27;30.02
58473;BME280;44775;51.564;5.460;2023-08-20T11:32:59;102034.09;;;35.49;29.22
58473;BME280;44775;51.564;5.460;2023-08-20T11:35:25;102037.94;;;34.61;31.11
58473;BME280;44775;51.564;5.460;2023-08-20T11:37:52;102035.94;;;35.13;29.60
58473;BME280;44775;51.564;5.460;2023-08-20T11:40:20;102032.94;;;35.09;33.89
58473;BME280;44775;51.564;5.460;2023-08-20T11:42:46;102029.34;;;34.76;35.82
58473;BME280;44775;51.564;5.460;2023-08-20T11:45:11;102028.81;;;35.07;33.13
58473;BME280;44775;51.564;5.460;2023-08-20T11:47:40;102027.56;;;34.99;31.11
58473;BME280;44775;51.564;5.460;2023-08-20T11:50:07;102028.38;;;34.99;29.54
58473;BME280;44775;51.564;5.460;2023-08-20T11:52:33;102029.50;;;34.98;28.36
58473;BME280;44775;51.564;5.460;2023-08-20T11:54:59;102013.56;;;34.90;31.06
58473;BME280;44775;51.564;5.460;2023-08-20T11:57:30;102012.81;;;34.85;30.38
58473;BME280;44775;51.564;5.460;2023-08-20T12:00:01;102006.84;;;35.10;28.28
58473;BME280;44775;51.564;5.460;2023-08-20T12:02:29;101997.38;;;35.25;28.75
58473;BME280;44775;51.564;5.460;2023-08-20T12:04:56;101987.28;;;35.15;28.26
58473;BME280;44775;51.564;5.460;2023-08-20T12:07:25;101987.88;;;35.12;32.90
58473;BME280;44775;51.564;5.460;2023-08-20T12:09:52;101981.63;;;35.34;30.49
58473;BME280;44775;51.564;5.460;2023-08-20T12:12:19;101987.66;;;35.50;29.40
58473;BME280;44775;51.564;5.460;2023-08-20T12:14:48;101990.66;;;35.81;27.39
58473;BME280;44775;51.564;5.460;2023-08-20T12:17:17;101986.06;;;35.99;28.26
58473;BME280;44775;51.564;5.460;2023-08-20T12:19:44;101982.44;;;36.35;26.92
58473;BME280;44775;51.564;5.460;2023-08-20T12:22:09;101985.88;;;36.32;30.57
58473;BME280;44775;51.564;5.460;2023-08-20T12:24:35;101984.84;;;36.28;28.24
58473;BME280;44775;51.564;5.460;2023-08-20T12:27:00;101985.50;;;35.88;27.41
58473;BME280;44775;51.564;5.460;2023-08-20T12:29:25;101977.97;;;35.89;27.38
58473;BME280;44775;51.564;5.460;2023-08-20T12:31:51;101981.66;;;35.98;26.47
58473;BME280;44775;51.564;5.460;2023-08-20T12:34:17;101979.19;;;35.97;29.15
58473;BME280;44775;51.564;5.460;2023-08-20T12:36:42;101987.81;;;36.09;26.96
58473;BME280;44775;51.564;5.460;2023-08-20T12:39:07;101982.66;;;36.38;26.61
58473;BME280;44775;51.564;5.460;2023-08-20T12:41:33;101984.72;;;36.10;29.69
58473;BME280;44775;51.564;5.460;2023-08-20T12:44:00;101978.47;;;36.05;32.82
58473;BME280;44775;51.564;5.460;2023-08-20T12:46:25;101991.75;;;35.94;33.37
58473;BME280;44775;51.564;5.460;2023-08-20T12:48:51;101989.75;;;36.67;26.13
58473;BME280;44775;51.564;5.460;2023-08-20T12:51:16;101990.63;;;36.76;27.84
58473;BME280;44775;51.564;5.460;2023-08-20T12:53:43;101992.13;;;37.53;29.00
58473;BME280;44775;51.564;5.460;2023-08-20T12:56:09;101989.72;;;36.90;31.21